• Join FlightAware (Why Join?)
  • Login
  • US Flag 
08:04PM EDT


 

Airport Tracker/Info


-or-


 

Live Flight TrackerFlight Track Log ✈ RPA3228 ✈ 22-05-2013 ✈ KDCA - KBTV

Flight Track Log - Related Links

Times and Time Zones

All times are in EDT time to prevent confusion due to time zone crossing. See the RPA3228 flight status page for this flight to view local times or setup timezone preferences in your user account.

Time Position Orientation Groundspeed Altitude Reporting Facility
EDT Latitude Longitude Course Direction KTS MPH feet Rate Location/Type
10:33AM 38.8000 -77.0333 61° Northeast 187 215 1,900  Level Potomac TRACON
10:34AM 38.7667 -76.9667 123° Southeast 236 272 4,500 2,400 Climbing Potomac TRACON
10:35AM 38.9648 -76.6888 67° East  Level FlightAware Approximate
10:36AM 39.0121 -76.5757 57° Northeast  Level FlightAware Approximate
10:36AM 38.8622 -76.9300 17° North 250 288 8,300  Level Washington Center
10:37AM 39.0560 -76.4599 63° Northeast  Level FlightAware Approximate
10:37AM 38.9272 -76.8964 22° Northeast 250 288 11,200  Level Washington Center
10:38AM 39.1039 -76.3465 61° Northeast  Level FlightAware Approximate
10:38AM 38.9758 -76.8278 48° Northeast 250 288 13,700  Level Washington Center
10:39AM 39.0061 -76.7217 70° East 275 316 14,700 1,260 Climbing Washington Center
10:40AM 39.0406 -76.5939 71° East 321 369 16,300 1,860 Climbing Washington Center
10:41AM 39.0811 -76.4633 68° East 366 421 18,500 2,040 Climbing Washington Center
10:42AM 39.1194 -76.3272 70° East 387 445 20,400 1,860 Climbing Washington Center
10:43AM 39.1558 -76.1858 72° East 401 461 22,300 1,320 Climbing Washington Center
10:44AM 39.1753 -76.0333 81° East 415 478 23,100 900 Climbing Washington Center
10:45AM 39.2278 -75.9025 63° Northeast 408 470 24,200 1,320 Climbing Washington Center
10:46AM 39.3092 -75.7875 48° Northeast 415 478 25,800 1,380 Climbing Washington Center
10:47AM 39.3928 -75.6694 47° Northeast 421 484 27,000 1,200 Climbing Washington Center
10:48AM 39.4761 -75.5511 48° Northeast 432 497 28,300 960 Climbing Washington Center
10:49AM 39.5592 -75.4328 48° Northeast 438 504 29,000 180 Climbing Washington Center
10:51AM 39.7617 -75.1350 48° Northeast 469 540 29,000  Level New York Center
10:52AM 39.8475 -75.0131 47° Northeast 469 540 29,000  Level New York Center
10:53AM 39.9394 -74.8914 45° Northeast 469 540 29,000  Level New York Center
10:54AM 40.0350 -74.7778 42° Northeast 463 533 29,000  Level New York Center
10:55AM 40.1347 -74.6669 40° Northeast 458 527 29,000  Level New York Center
10:56AM 40.2300 -74.5525 43° Northeast 458 527 29,000  Level New York Center
10:57AM 40.3256 -74.4325 44° Northeast 466 536 29,000  Level New York Center
10:58AM 40.4228 -74.3178 42° Northeast 466 536 29,000  Level New York Center
10:59AM 40.5203 -74.1972 43° Northeast 466 536 29,000  Level New York Center
11:02AM 40.7483 -73.9250 42° Northeast 472 543 29,000  Level Boston Center
11:03AM 40.8539 -73.8175 38° Northeast 472 543 29,000  Level Boston Center
11:04AM 40.9564 -73.7922 11° North 465 535 29,000  Level Boston Center
11:05AM 41.1125 -73.7983 358° North 451 519 29,000  Level Boston Center
11:06AM 41.2442 -73.7789 North 462 532 29,000  Level Boston Center
11:07AM 41.3697 -73.7344 15° North 467 537 29,000  Level Boston Center
11:08AM 41.4992 -73.7122 North 467 537 29,000  Level Boston Center
11:09AM 41.6411 -73.6844 North 467 537 29,000  Level Boston Center
11:10AM 41.7706 -73.6619 North 467 537 29,000  Level Boston Center
11:11AM 41.9022 -73.6394 North 467 537 29,000  Level Boston Center
11:12AM 42.0275 -73.6167 North 467 537 29,000  Level Boston Center
11:13AM 42.1883 -73.5806 North 467 537 29,000  Level Boston Center
11:14AM 42.3428 -73.5608 North 467 537 29,000  Level Boston Center
11:15AM 42.4742 -73.5378 North 467 537 29,000  Level Boston Center
11:16AM 42.5786 -73.5144 North 467 537 29,000  Level Boston Center
11:17AM 42.7228 -73.4914 North 467 537 29,000  Level Boston Center
11:18AM 42.8522 -73.4653 North 467 537 29,000  Level Boston Center
11:19AM 42.9942 -73.4364 North 467 537 29,000 -900 Level Boston Center
11:20AM 43.1236 -73.4131 North 467 537 27,300 -2,220 Descending Boston Center
11:21AM 43.2489 -73.3864 North 467 537 24,600 -1,680 Descending Boston Center
11:22AM 43.3469 -73.3681 North 454 522 24,000 -840 Descending Boston Center
11:23AM 43.4908 -73.3417 North 441 507 23,000 -1,800 Descending Boston Center
11:24AM 43.6078 -73.3203 North 428 493 20,400 -2,700 Descending Boston Center
11:25AM 43.7206 -73.2989 North 421 484 17,700 -2,580 Descending Boston Center
11:26AM 43.8269 -73.2775 North 403 464 15,300 -2,400 Descending Boston Center
11:27AM 43.9292 -73.2558 North 381 438 13,000 -2,160 Descending Boston Center
11:28AM 44.0294 -73.2400 North 370 426 11,000 -1,020 Descending Boston Center
11:29AM 44.1275 -73.2211 North 365 420 11,000 -420 Level Boston Center
11:30AM 44.2253 -73.2367 353° North 353 406 10,200 -540 Descending Boston Center
11:31AM 44.3147 -73.2583 350° North 339 390 10,000 -900 Descending Boston Center
11:32AM 44.3811 -73.2997 336° Northwest 300 345 8,500 -1,620 Descending Boston Center
11:33AM 44.4453 -73.3531 329° Northwest 272 313 6,800 -1,800 Descending Boston Center
11:34AM 44.5072 -73.4036 330° Northwest 272 313 4,900 -1,500 Descending Boston Center
11:35AM 44.5719 -73.3989 North 235 270 3,900 -960 Descending Boston Center
11:36AM 44.5975 -73.3264 64° Northeast 168 193 3,000 -660 Descending Boston Center
11:37AM 44.5583 -73.2761 138° Southeast 118 136 2,600 -720 Descending Boston Center
11:38AM 44.5253 -73.2350 138° Southeast 123 142 1,600 -1,020 Descending Boston Center